sensor_id;sensor_type;location;lat;lon;timestamp;pressure;altitude;pressure_sealevel;temperature;humidity
57114;BME280;42994;51.606;9.988;2022-12-10T00:01:39;98179.28;;;-1.38;100.00
57114;BME280;42994;51.606;9.988;2022-12-10T00:04:06;98182.16;;;-1.41;100.00
57114;BME280;42994;51.606;9.988;2022-12-10T00:06:34;98177.59;;;-1.39;100.00
57114;BME280;42994;51.606;9.988;2022-12-10T00:09:03;98183.84;;;-1.40;100.00
57114;BME280;42994;51.606;9.988;2022-12-10T00:11:32;98191.16;;;-1.44;100.00
57114;BME280;42994;51.606;9.988;2022-12-10T00:13:59;98180.78;;;-1.45;100.00
57114;BME280;42994;51.606;9.988;2022-12-10T00:16:28;98192.81;;;-1.43;100.00
57114;BME280;42994;51.606;9.988;2022-12-10T00:18:55;98184.53;;;-1.38;100.00
57114;BME280;42994;51.606;9.988;2022-12-10T00:21:25;98192.97;;;-1.34;100.00
57114;BME280;42994;51.606;9.988;2022-12-10T00:23:52;98193.50;;;-1.41;100.00
57114;BME280;42994;51.606;9.988;2022-12-10T00:26:21;98195.19;;;-1.40;100.00
57114;BME280;42994;51.606;9.988;2022-12-10T00:28:50;98196.28;;;-1.42;100.00
57114;BME280;42994;51.606;9.988;2022-12-10T00:31:19;98184.78;;;-1.41;100.00
57114;BME280;42994;51.606;9.988;2022-12-10T00:33:46;98196.13;;;-1.41;100.00
57114;BME280;42994;51.606;9.988;2022-12-10T00:36:15;98191.72;;;-1.40;100.00
57114;BME280;42994;51.606;9.988;2022-12-10T00:38:43;98192.00;;;-1.33;100.00
57114;BME280;42994;51.606;9.988;2022-12-10T00:41:10;98190.63;;;-1.28;100.00
57114;BME280;42994;51.606;9.988;2022-12-10T00:43:37;98191.88;;;-1.22;100.00
57114;BME280;42994;51.606;9.988;2022-12-10T00:46:06;98191.03;;;-1.32;100.00
57114;BME280;42994;51.606;9.988;2022-12-10T00:48:33;98189.22;;;-1.32;100.00
57114;BME280;42994;51.606;9.988;2022-12-10T00:51:02;98193.09;;;-1.36;100.00
57114;BME280;42994;51.606;9.988;2022-12-10T00:53:30;98191.72;;;-1.30;100.00
57114;BME280;42994;51.606;9.988;2022-12-10T00:55:58;98197.53;;;-1.37;100.00
57114;BME280;42994;51.606;9.988;2022-12-10T00:58:26;98196.44;;;-1.34;100.00
57114;BME280;42994;51.606;9.988;2022-12-10T01:00:53;98197.53;;;-1.37;100.00
57114;BME280;42994;51.606;9.988;2022-12-10T01:03:21;98200.88;;;-1.25;100.00
57114;BME280;42994;51.606;9.988;2022-12-10T01:05:48;98200.72;;;-1.23;100.00
57114;BME280;42994;51.606;9.988;2022-12-10T01:08:15;98204.06;;;-1.21;100.00
57114;BME280;42994;51.606;9.988;2022-12-10T01:10:41;98210.31;;;-1.22;100.00
57114;BME280;42994;51.606;9.988;2022-12-10T01:13:08;98206.00;;;-1.33;100.00
57114;BME280;42994;51.606;9.988;2022-12-10T01:15:37;98204.44;;;-1.36;100.00
57114;BME280;42994;51.606;9.988;2022-12-10T01:18:03;98207.38;;;-1.39;100.00
57114;BME280;42994;51.606;9.988;2022-12-10T01:20:34;98212.88;;;-1.32;100.00
57114;BME280;42994;51.606;9.988;2022-12-10T01:23:01;98208.88;;;-1.26;100.00
57114;BME280;42994;51.606;9.988;2022-12-10T01:25:28;98216.91;;;-1.28;100.00
57114;BME280;42994;51.606;9.988;2022-12-10T01:27:54;98216.50;;;-1.23;100.00
57114;BME280;42994;51.606;9.988;2022-12-10T01:30:23;98221.63;;;-1.22;100.00
57114;BME280;42994;51.606;9.988;2022-12-10T01:32:51;98211.94;;;-1.21;100.00
57114;BME280;42994;51.606;9.988;2022-12-10T01:35:18;98219.44;;;-1.17;100.00
57114;BME280;42994;51.606;9.988;2022-12-10T01:37:47;98217.19;;;-1.21;100.00
57114;BME280;42994;51.606;9.988;2022-12-10T01:40:14;98220.81;;;-1.12;100.00
57114;BME280;42994;51.606;9.988;2022-12-10T01:42:40;98229.41;;;-1.10;100.00
57114;BME280;42994;51.606;9.988;2022-12-10T01:45:10;98233.16;;;-1.13;100.00
57114;BME280;42994;51.606;9.988;2022-12-10T01:47:37;98229.94;;;-1.17;100.00
57114;BME280;42994;51.606;9.988;2022-12-10T01:50:06;98220.81;;;-1.12;100.00
57114;BME280;42994;51.606;9.988;2022-12-10T01:52:36;98238.09;;;-1.10;100.00
57114;BME280;42994;51.606;9.988;2022-12-10T01:57:50;98238.53;;;-1.05;100.00
57114;BME280;42994;51.606;9.988;2022-12-10T02:00:17;98239.22;;;-1.03;100.00
57114;BME280;42994;51.606;9.988;2022-12-10T02:02:46;98244.22;;;-1.00;100.00
57114;BME280;42994;51.606;9.988;2022-12-10T02:05:25;98240.91;;;-1.02;100.00
57114;BME280;42994;51.606;9.988;2022-12-10T02:07:59;98247.25;;;-1.04;100.00
57114;BME280;42994;51.606;9.988;2022-12-10T02:10:41;98239.53;;;-1.06;100.00
57114;BME280;42994;51.606;9.988;2022-12-10T02:13:11;98242.72;;;-1.02;100.00
57114;BME280;42994;51.606;9.988;2022-12-10T02:15:47;98235.50;;;-1.00;100.00
57114;BME280;42994;51.606;9.988;2022-12-10T02:18:19;98234.53;;;-0.99;100.00
57114;BME280;42994;51.606;9.988;2022-12-10T02:20:49;98237.16;;;-1.09;100.00
57114;BME280;42994;51.606;9.988;2022-12-10T02:23:21;98231.91;;;-1.09;100.00
57114;BME280;42994;51.606;9.988;2022-12-10T02:25:51;98225.50;;;-1.06;100.00
57114;BME280;42994;51.606;9.988;2022-12-10T02:28:23;98226.06;;;-1.03;100.00
57114;BME280;42994;51.606;9.988;2022-12-10T02:30:58;98231.06;;;-1.00;100.00
57114;BME280;42994;51.606;9.988;2022-12-10T02:33:27;98230.13;;;-0.99;100.00
57114;BME280;42994;51.606;9.988;2022-12-10T02:35:55;98229.41;;;-1.01;100.00
57114;BME280;42994;51.606;9.988;2022-12-10T02:38:26;98230.13;;;-0.99;100.00
57114;BME280;42994;51.606;9.988;2022-12-10T02:41:00;98228.31;;;-0.98;100.00
57114;BME280;42994;51.606;9.988;2022-12-10T02:43:29;98227.31;;;-0.97;100.00
57114;BME280;42994;51.606;9.988;2022-12-10T02:45:59;98228.31;;;-0.98;100.00
57114;BME280;42994;51.606;9.988;2022-12-10T02:48:29;98226.50;;;-0.98;100.00
57114;BME280;42994;51.606;9.988;2022-12-10T02:50:57;98227.19;;;-0.95;100.00
57114;BME280;42994;51.606;9.988;2022-12-10T02:53:24;98230.81;;;-0.97;100.00
57114;BME280;42994;51.606;9.988;2022-12-10T02:56:06;98233.97;;;-1.03;100.00
57114;BME280;42994;51.606;9.988;2022-12-10T02:58:47;98237.97;;;-1.08;100.00
57114;BME280;42994;51.606;9.988;2022-12-10T03:01:26;98235.47;;;-1.10;100.00
57114;BME280;42994;51.606;9.988;2022-12-10T03:03:59;98228.72;;;-1.12;100.00
57114;BME280;42994;51.606;9.988;2022-12-10T03:06:30;98227.31;;;-1.17;100.00
57114;BME280;42994;51.606;9.988;2022-12-10T03:08:59;98227.72;;;-1.21;100.00
57114;BME280;42994;51.606;9.988;2022-12-10T03:11:27;98228.28;;;-1.27;100.00
57114;BME280;42994;51.606;9.988;2022-12-10T03:13:58;98228.28;;;-1.27;100.00
57114;BME280;42994;51.606;9.988;2022-12-10T03:16:28;98226.75;;;-1.20;100.00
57114;BME280;42994;51.606;9.988;2022-12-10T03:19:01;98228.44;;;-1.09;100.00
57114;BME280;42994;51.606;9.988;2022-12-10T03:21:30;98232.16;;;-1.12;100.00
57114;BME280;42994;51.606;9.988;2022-12-10T03:23:59;98231.63;;;-1.06;100.00
57114;BME280;42994;51.606;9.988;2022-12-10T03:26:27;98225.50;;;-1.06;100.00
57114;BME280;42994;51.606;9.988;2022-12-10T03:28:56;98225.25;;;-1.13;100.00
57114;BME280;42994;51.606;9.988;2022-12-10T03:31:25;98222.34;;;-1.20;100.00
57114;BME280;42994;51.606;9.988;2022-12-10T03:33:54;98221.78;;;-1.23;100.00
57114;BME280;42994;51.606;9.988;2022-12-10T03:36:21;98221.09;;;-1.25;100.00
57114;BME280;42994;51.606;9.988;2022-12-10T03:38:49;98219.00;;;-1.22;100.00
57114;BME280;42994;51.606;9.988;2022-12-10T03:41:16;98217.63;;;-1.26;100.00
57114;BME280;42994;51.606;9.988;2022-12-10T03:43:53;98213.19;;;-1.25;100.00
57114;BME280;42994;51.606;9.988;2022-12-10T03:46:21;98207.50;;;-1.30;100.00
57114;BME280;42994;51.606;9.988;2022-12-10T03:48:48;98212.50;;;-1.27;100.00
57114;BME280;42994;51.606;9.988;2022-12-10T03:51:16;98214.31;;;-1.18;100.00
57114;BME280;42994;51.606;9.988;2022-12-10T03:53:42;98217.50;;;-1.14;100.00
57114;BME280;42994;51.606;9.988;2022-12-10T03:56:09;98215.69;;;-1.14;100.00
57114;BME280;42994;51.606;9.988;2022-12-10T03:58:36;98220.56;;;-1.09;100.00
57114;BME280;42994;51.606;9.988;2022-12-10T04:01:03;98216.13;;;-1.09;100.00
57114;BME280;42994;51.606;9.988;2022-12-10T04:03:30;98227.19;;;-1.15;100.00
57114;BME280;42994;51.606;9.988;2022-12-10T04:06:01;98228.56;;;-1.11;100.00
57114;BME280;42994;51.606;9.988;2022-12-10T04:08:29;98235.09;;;-1.15;100.00
57114;BME280;42994;51.606;9.988;2022-12-10T04:11:02;98234.34;;;-1.17;100.00
57114;BME280;42994;51.606;9.988;2022-12-10T04:13:31;98230.50;;;-1.13;100.00
57114;BME280;42994;51.606;9.988;2022-12-10T04:16:15;98221.09;;;-1.16;100.00
57114;BME280;42994;51.606;9.988;2022-12-10T04:19:00;98228.69;;;-1.22;100.00
57114;BME280;42994;51.606;9.988;2022-12-10T04:21:28;98215.41;;;-1.21;100.00
57114;BME280;42994;51.606;9.988;2022-12-10T04:24:20;98224.81;;;-1.18;100.00
57114;BME280;42994;51.606;9.988;2022-12-10T04:27:06;98223.84;;;-1.17;100.00
57114;BME280;42994;51.606;9.988;2022-12-10T04:29:34;98226.34;;;-1.25;100.00
57114;BME280;42994;51.606;9.988;2022-12-10T04:32:01;98222.16;;;-1.28;100.00
57114;BME280;42994;51.606;9.988;2022-12-10T04:34:27;98219.69;;;-1.20;100.00
57114;BME280;42994;51.606;9.988;2022-12-10T04:36:54;98221.63;;;-1.22;100.00
57114;BME280;42994;51.606;9.988;2022-12-10T04:39:24;98230.47;;;-1.23;100.00
57114;BME280;42994;51.606;9.988;2022-12-10T04:41:51;98229.09;;;-1.27;100.00
57114;BME280;42994;51.606;9.988;2022-12-10T04:44:18;98222.72;;;-1.34;100.00
57114;BME280;42994;51.606;9.988;2022-12-10T04:46:45;98224.66;;;-1.36;100.00
57114;BME280;42994;51.606;9.988;2022-12-10T04:49:14;98220.66;;;-1.30;100.00
57114;BME280;42994;51.606;9.988;2022-12-10T04:51:41;98233.53;;;-1.27;100.00
57114;BME280;42994;51.606;9.988;2022-12-10T04:54:09;98219.53;;;-1.28;100.00
57114;BME280;42994;51.606;9.988;2022-12-10T04:56:37;98231.47;;;-1.24;100.00
57114;BME280;42994;51.606;9.988;2022-12-10T04:59:04;98229.22;;;-1.38;100.00
57114;BME280;42994;51.606;9.988;2022-12-10T05:01:31;98235.88;;;-1.34;100.00
57114;BME280;42994;51.606;9.988;2022-12-10T05:03:59;98227.97;;;-1.34;100.00
57114;BME280;42994;51.606;9.988;2022-12-10T05:06:26;98239.59;;;-1.37;100.00
57114;BME280;42994;51.606;9.988;2022-12-10T05:08:53;98235.31;;;-1.38;100.00
57114;BME280;42994;51.606;9.988;2022-12-10T05:11:24;98230.72;;;-1.36;100.00
57114;BME280;42994;51.606;9.988;2022-12-10T05:13:53;98226.03;;;-1.32;100.00
57114;BME280;42994;51.606;9.988;2022-12-10T05:16:21;98232.00;;;-1.30;100.00
57114;BME280;42994;51.606;9.988;2022-12-10T05:18:48;98235.31;;;-1.38;100.00
57114;BME280;42994;51.606;9.988;2022-12-10T05:21:17;98239.31;;;-1.33;100.00
57114;BME280;42994;51.606;9.988;2022-12-10T05:23:46;98230.19;;;-1.39;100.00
57114;BME280;42994;51.606;9.988;2022-12-10T05:26:14;98240.56;;;-1.38;100.00
57114;BME280;42994;51.606;9.988;2022-12-10T05:28:43;98242.06;;;-1.45;100.00
57114;BME280;42994;51.606;9.988;2022-12-10T05:31:16;98248.31;;;-1.46;100.00
57114;BME280;42994;51.606;9.988;2022-12-10T05:33:45;98253.00;;;-1.40;100.00
57114;BME280;42994;51.606;9.988;2022-12-10T05:36:15;98256.03;;;-1.44;100.00
57114;BME280;42994;51.606;9.988;2022-12-10T05:38:42;98263.09;;;-1.45;100.00
57114;BME280;42994;51.606;9.988;2022-12-10T05:41:11;98272.34;;;-1.50;100.00
57114;BME280;42994;51.606;9.988;2022-12-10T05:43:38;98264.06;;;-1.46;100.00
57114;BME280;42994;51.606;9.988;2022-12-10T05:46:07;98272.47;;;-1.52;100.00
57114;BME280;42994;51.606;9.988;2022-12-10T05:48:36;98263.63;;;-1.51;100.00
57114;BME280;42994;51.606;9.988;2022-12-10T05:51:04;98272.75;;;-1.55;100.00
57114;BME280;42994;51.606;9.988;2022-12-10T05:53:31;98274.28;;;-1.43;100.00
57114;BME280;42994;51.606;9.988;2022-12-10T05:56:02;98279.03;;;-1.37;100.00
57114;BME280;42994;51.606;9.988;2022-12-10T05:58:30;98280.78;;;-1.47;100.00
57114;BME280;42994;51.606;9.988;2022-12-10T06:00:56;98266.97;;;-1.49;100.00
57114;BME280;42994;51.606;9.988;2022-12-10T06:03:24;98281.63;;;-1.46;100.00
57114;BME280;42994;51.606;9.988;2022-12-10T06:05:53;98271.25;;;-1.48;100.00
57114;BME280;42994;51.606;9.988;2022-12-10T06:08:20;98284.81;;;-1.43;100.00
57114;BME280;42994;51.606;9.988;2022-12-10T06:10:47;98290.94;;;-1.42;100.00
57114;BME280;42994;51.606;9.988;2022-12-10T06:13:13;98285.78;;;-1.44;100.00
57114;BME280;42994;51.606;9.988;2022-12-10T06:15:41;98289.38;;;-1.45;100.00
57114;BME280;42994;51.606;9.988;2022-12-10T06:18:08;98280.25;;;-1.41;100.00
57114;BME280;42994;51.606;9.988;2022-12-10T06:20:37;98283.84;;;-1.42;100.00
57114;BME280;42994;51.606;9.988;2022-12-10T06:23:06;98287.72;;;-1.46;100.00
57114;BME280;42994;51.606;9.988;2022-12-10T06:25:33;98285.34;;;-1.49;100.00
57114;BME280;42994;51.606;9.988;2022-12-10T06:28:00;98287.03;;;-1.48;100.00
57114;BME280;42994;51.606;9.988;2022-12-10T06:30:26;98289.09;;;-1.51;100.00
57114;BME280;42994;51.606;9.988;2022-12-10T06:32:53;98291.19;;;-1.45;100.00
57114;BME280;42994;51.606;9.988;2022-12-10T06:35:20;98296.88;;;-1.40;100.00
57114;BME280;42994;51.606;9.988;2022-12-10T06:37:46;98293.00;;;-1.46;100.00
57114;BME280;42994;51.606;9.988;2022-12-10T06:40:17;98289.91;;;-1.51;100.00
57114;BME280;42994;51.606;9.988;2022-12-10T06:42:44;98302.75;;;-1.58;100.00
57114;BME280;42994;51.606;9.988;2022-12-10T06:45:11;98302.06;;;-1.50;100.00
57114;BME280;42994;51.606;9.988;2022-12-10T06:47:38;98309.97;;;-1.50;100.00
57114;BME280;42994;51.606;9.988;2022-12-10T06:50:05;98300.31;;;-1.49;100.00
57114;BME280;42994;51.606;9.988;2022-12-10T06:52:32;98300.44;;;-1.51;100.00
57114;BME280;42994;51.606;9.988;2022-12-10T06:54:59;98304.81;;;-1.61;100.00
57114;BME280;42994;51.606;9.988;2022-12-10T06:57:27;98308.56;;;-1.54;100.00
57114;BME280;42994;51.606;9.988;2022-12-10T06:59:54;98305.44;;;-1.48;100.00
57114;BME280;42994;51.606;9.988;2022-12-10T07:02:20;98310.94;;;-1.51;100.00
57114;BME280;42994;51.606;9.988;2022-12-10T07:04:47;98310.69;;;-1.48;100.00
57114;BME280;42994;51.606;9.988;2022-12-10T07:07:14;98313.69;;;-1.52;100.00
57114;BME280;42994;51.606;9.988;2022-12-10T07:09:40;98309.94;;;-1.60;100.00
57114;BME280;42994;51.606;9.988;2022-12-10T07:12:07;98306.63;;;-1.52;100.00
57114;BME280;42994;51.606;9.988;2022-12-10T07:14:35;98312.56;;;-1.60;100.00
57114;BME280;42994;51.606;9.988;2022-12-10T07:17:02;98316.13;;;-1.61;100.00
57114;BME280;42994;51.606;9.988;2022-12-10T07:19:30;98325.59;;;-1.48;100.00
57114;BME280;42994;51.606;9.988;2022-12-10T07:21:57;98321.84;;;-1.56;100.00
57114;BME280;42994;51.606;9.988;2022-12-10T07:24:23;98327.03;;;-1.75;100.00
57114;BME280;42994;51.606;9.988;2022-12-10T07:26:51;98326.75;;;-1.72;100.00
57114;BME280;42994;51.606;9.988;2022-12-10T07:29:20;98325.22;;;-1.75;100.00
57114;BME280;42994;51.606;9.988;2022-12-10T07:31:48;98325.47;;;-1.78;100.00
57114;BME280;42994;51.606;9.988;2022-12-10T07:34:16;98326.63;;;-1.70;100.00
57114;BME280;42994;51.606;9.988;2022-12-10T07:36:43;98329.38;;;-1.72;100.00
57114;BME280;42994;51.606;9.988;2022-12-10T07:39:10;98337.13;;;-1.70;100.00
57114;BME280;42994;51.606;9.988;2022-12-10T07:41:42;98332.44;;;-1.67;100.00
57114;BME280;42994;51.606;9.988;2022-12-10T07:44:10;98336.81;;;-1.77;100.00
57114;BME280;42994;51.606;9.988;2022-12-10T07:46:37;98340.00;;;-1.74;100.00
57114;BME280;42994;51.606;9.988;2022-12-10T07:49:05;98332.97;;;-1.73;100.00
57114;BME280;42994;51.606;9.988;2022-12-10T07:51:33;98339.31;;;-1.76;100.00
57114;BME280;42994;51.606;9.988;2022-12-10T07:54:00;98346.25;;;-1.75;100.00
57114;BME280;42994;51.606;9.988;2022-12-10T07:56:27;98339.50;;;-1.88;100.00
57114;BME280;42994;51.606;9.988;2022-12-10T07:58:54;98339.00;;;-1.82;100.00
57114;BME280;42994;51.606;9.988;2022-12-10T08:01:23;98343.41;;;-1.83;100.00
57114;BME280;42994;51.606;9.988;2022-12-10T08:03:50;98344.28;;;-1.82;100.00
57114;BME280;42994;51.606;9.988;2022-12-10T08:06:20;98346.31;;;-1.86;100.00
57114;BME280;42994;51.606;9.988;2022-12-10T08:08:48;98350.59;;;-1.85;100.00
57114;BME280;42994;51.606;9.988;2022-12-10T08:11:16;98349.66;;;-1.84;100.00
57114;BME280;42994;51.606;9.988;2022-12-10T08:13:44;98356.75;;;-1.75;100.00
57114;BME280;42994;51.606;9.988;2022-12-10T08:16:13;98351.75;;;-1.78;100.00
57114;BME280;42994;51.606;9.988;2022-12-10T08:18:41;98358.94;;;-1.80;100.00
57114;BME280;42994;51.606;9.988;2022-12-10T08:21:09;98357.19;;;-1.69;100.00
57114;BME280;42994;51.606;9.988;2022-12-10T08:23:39;98360.97;;;-1.83;100.00
57114;BME280;42994;51.606;9.988;2022-12-10T08:26:09;98362.00;;;-1.75;100.00
57114;BME280;42994;51.606;9.988;2022-12-10T08:28:36;98357.00;;;-1.78;100.00
57114;BME280;42994;51.606;9.988;2022-12-10T08:31:03;98356.88;;;-1.76;100.00
57114;BME280;42994;51.606;9.988;2022-12-10T08:33:32;98355.94;;;-1.75;100.00
57114;BME280;42994;51.606;9.988;2022-12-10T08:36:00;98364.72;;;-1.86;100.00
57114;BME280;42994;51.606;9.988;2022-12-10T08:38:29;98367.59;;;-1.89;100.00
57114;BME280;42994;51.606;9.988;2022-12-10T08:40:57;98362.56;;;-1.92;100.00
57114;BME280;42994;51.606;9.988;2022-12-10T08:43:25;98365.91;;;-1.90;100.00
57114;BME280;42994;51.606;9.988;2022-12-10T08:45:51;98364.78;;;-1.97;100.00
57114;BME280;42994;51.606;9.988;2022-12-10T08:48:19;98367.13;;;-1.94;100.00
57114;BME280;42994;51.606;9.988;2022-12-10T08:50:46;98360.47;;;-1.98;100.00
57114;BME280;42994;51.606;9.988;2022-12-10T08:53:12;98364.50;;;-1.94;100.00
57114;BME280;42994;51.606;9.988;2022-12-10T08:55:39;98375.13;;;-1.96;100.00
57114;BME280;42994;51.606;9.988;2022-12-10T08:58:09;98372.97;;;-1.90;100.00
57114;BME280;42994;51.606;9.988;2022-12-10T09:00:36;98368.41;;;-1.88;100.00
57114;BME280;42994;51.606;9.988;2022-12-10T09:03:03;98370.53;;;-1.82;100.00
57114;BME280;42994;51.606;9.988;2022-12-10T09:05:30;98379.16;;;-1.70;100.00
57114;BME280;42994;51.606;9.988;2022-12-10T09:07:56;98373.41;;;-1.64;100.00
57114;BME280;42994;51.606;9.988;2022-12-10T09:10:23;98374.25;;;-1.64;100.00
57114;BME280;42994;51.606;9.988;2022-12-10T09:12:50;98384.75;;;-1.64;100.00
57114;BME280;42994;51.606;9.988;2022-12-10T09:15:18;98380.56;;;-1.66;100.00
57114;BME280;42994;51.606;9.988;2022-12-10T09:17:45;98387.19;;;-1.72;100.00
57114;BME280;42994;51.606;9.988;2022-12-10T09:20:11;98384.56;;;-1.72;100.00
57114;BME280;42994;51.606;9.988;2022-12-10T09:22:38;98382.78;;;-1.71;100.00
57114;BME280;42994;51.606;9.988;2022-12-10T09:25:06;98387.06;;;-1.70;100.00
57114;BME280;42994;51.606;9.988;2022-12-10T09:27:35;98391.84;;;-1.76;100.00
57114;BME280;42994;51.606;9.988;2022-12-10T09:30:03;98388.84;;;-1.71;100.00
57114;BME280;42994;51.606;9.988;2022-12-10T09:32:31;98398.53;;;-1.71;100.00
57114;BME280;42994;51.606;9.988;2022-12-10T09:34:58;98393.00;;;-1.68;100.00
57114;BME280;42994;51.606;9.988;2022-12-10T09:37:25;98398.38;;;-1.70;100.00
57114;BME280;42994;51.606;9.988;2022-12-10T09:39:52;98393.28;;;-1.71;100.00
57114;BME280;42994;51.606;9.988;2022-12-10T09:42:27;98387.94;;;-1.81;100.00
57114;BME280;42994;51.606;9.988;2022-12-10T09:45:02;98397.59;;;-1.91;100.00
57114;BME280;42994;51.606;9.988;2022-12-10T09:47:36;98395.78;;;-1.91;100.00
57114;BME280;42994;51.606;9.988;2022-12-10T09:50:12;98385.84;;;-1.87;100.00
57114;BME280;42994;51.606;9.988;2022-12-10T09:52:45;98386.31;;;-1.82;100.00
57114;BME280;42994;51.606;9.988;2022-12-10T09:55:16;98391.03;;;-1.76;100.00
57114;BME280;42994;51.606;9.988;2022-12-10T09:57:46;98387.13;;;-1.82;100.00
57114;BME280;42994;51.606;9.988;2022-12-10T10:00:20;98396.41;;;-1.78;100.00
57114;BME280;42994;51.606;9.988;2022-12-10T10:02:50;98383.03;;;-1.75;100.00
57114;BME280;42994;51.606;9.988;2022-12-10T10:05:21;98383.34;;;-1.68;100.00
57114;BME280;42994;51.606;9.988;2022-12-10T10:07:51;98382.78;;;-1.71;100.00
57114;BME280;42994;51.606;9.988;2022-12-10T10:10:25;98384.25;;;-1.79;100.00
57114;BME280;42994;51.606;9.988;2022-12-10T10:12:55;98390.28;;;-1.88;100.00
57114;BME280;42994;51.606;9.988;2022-12-10T10:15:29;98384.81;;;-1.75;100.00
57114;BME280;42994;51.606;9.988;2022-12-10T10:18:01;98376.88;;;-1.85;100.00
57114;BME280;42994;51.606;9.988;2022-12-10T10:20:29;98381.06;;;-1.82;100.00
57114;BME280;42994;51.606;9.988;2022-12-10T10:22:57;98377.38;;;-1.91;100.00
57114;BME280;42994;51.606;9.988;2022-12-10T10:25:27;98373.50;;;-1.97;100.00
57114;BME280;42994;51.606;9.988;2022-12-10T10:27:54;98387.50;;;-1.86;100.00
57114;BME280;42994;51.606;9.988;2022-12-10T10:30:22;98376.28;;;-1.88;100.00
57114;BME280;42994;51.606;9.988;2022-12-10T10:32:51;98376.63;;;-1.82;100.00
57114;BME280;42994;51.606;9.988;2022-12-10T10:35:28;98384.66;;;-1.74;100.00
57114;BME280;42994;51.606;9.988;2022-12-10T10:37:57;98384.19;;;-1.67;100.00
57114;BME280;42994;51.606;9.988;2022-12-10T10:40:26;98384.75;;;-1.64;100.00
57114;BME280;42994;51.606;9.988;2022-12-10T10:42:55;98384.88;;;-1.65;100.00
57114;BME280;42994;51.606;9.988;2022-12-10T10:45:35;98380.44;;;-1.65;100.00
57114;BME280;42994;51.606;9.988;2022-12-10T10:48:10;98377.25;;;-1.68;100.00
57114;BME280;42994;51.606;9.988;2022-12-10T10:50:41;98388.66;;;-1.79;100.00
57114;BME280;42994;51.606;9.988;2022-12-10T10:53:30;98388.28;;;-1.75;100.00
57114;BME280;42994;51.606;9.988;2022-12-10T10:56:01;98388.19;;;-1.63;100.00
57114;BME280;42994;51.606;9.988;2022-12-10T10:58:31;98397.31;;;-1.67;100.00
57114;BME280;42994;51.606;9.988;2022-12-10T11:01:00;98389.75;;;-1.82;100.00
57114;BME280;42994;51.606;9.988;2022-12-10T11:03:28;98385.66;;;-1.75;100.00
57114;BME280;42994;51.606;9.988;2022-12-10T11:05:58;98390.56;;;-1.81;100.00
57114;BME280;42994;51.606;9.988;2022-12-10T11:08:28;98397.00;;;-1.95;100.00
57114;BME280;42994;51.606;9.988;2022-12-10T11:10:59;98389.69;;;-1.70;100.00
57114;BME280;42994;51.606;9.988;2022-12-10T11:13:29;98385.78;;;-1.76;100.00
57114;BME280;42994;51.606;9.988;2022-12-10T11:15:59;98392.91;;;-1.88;100.00
57114;BME280;42994;51.606;9.988;2022-12-10T11:18:30;98382.56;;;-1.80;100.00
57114;BME280;42994;51.606;9.988;2022-12-10T11:21:02;98384.25;;;-1.79;100.00
57114;BME280;42994;51.606;9.988;2022-12-10T11:23:30;98385.53;;;-1.73;100.00
57114;BME280;42994;51.606;9.988;2022-12-10T11:26:05;98387.13;;;-1.82;100.00
57114;BME280;42994;51.606;9.988;2022-12-10T11:28:47;98380.72;;;-1.89;100.00
57114;BME280;42994;51.606;9.988;2022-12-10T11:31:33;98387.06;;;-1.91;100.00
57114;BME280;42994;51.606;9.988;2022-12-10T11:34:10;98382.66;;;-1.91;100.00
57114;BME280;42994;51.606;9.988;2022-12-10T11:36:46;98384.75;;;-1.85;100.00
57114;BME280;42994;51.606;9.988;2022-12-10T11:39:31;98390.06;;;-1.96;100.00
57114;BME280;42994;51.606;9.988;2022-12-10T11:42:07;98382.66;;;-1.91;100.00
57114;BME280;42994;51.606;9.988;2022-12-10T11:44:43;98391.22;;;-1.89;100.00
57114;BME280;42994;51.606;9.988;2022-12-10T11:47:26;98387.00;;;-1.80;100.00
57114;BME280;42994;51.606;9.988;2022-12-10T11:50:02;98395.66;;;-1.89;100.00
57114;BME280;42994;51.606;9.988;2022-12-10T11:52:47;98386.19;;;-1.81;100.00
57114;BME280;42994;51.606;9.988;2022-12-10T11:55:26;98393.66;;;-1.97;100.00
57114;BME280;42994;51.606;9.988;2022-12-10T11:58:08;98396.41;;;-1.99;100.00
57114;BME280;42994;51.606;9.988;2022-12-10T12:00:50;98400.69;;;-1.98;100.00
57114;BME280;42994;51.606;9.988;2022-12-10T12:03:38;98394.75;;;-2.00;100.00
57114;BME280;42994;51.606;9.988;2022-12-10T12:06:47;98396.34;;;-2.08;100.00
57114;BME280;42994;51.606;9.988;2022-12-10T12:09:23;98390.59;;;-2.02;100.00
57114;BME280;42994;51.606;9.988;2022-12-10T12:12:01;98402.50;;;-1.98;100.00
57114;BME280;42994;51.606;9.988;2022-12-10T12:14:34;98394.47;;;-1.76;100.00
57114;BME280;42994;51.606;9.988;2022-12-10T12:17:08;98393.47;;;-1.84;100.00
57114;BME280;42994;51.606;9.988;2022-12-10T12:19:37;98386.56;;;-1.85;100.00
57114;BME280;42994;51.606;9.988;2022-12-10T12:22:13;98400.91;;;-1.89;100.00
57114;BME280;42994;51.606;9.988;2022-12-10T12:24:43;98394.06;;;-1.81;100.00
57114;BME280;42994;51.606;9.988;2022-12-10T12:27:21;98396.16;;;-1.96;100.00
57114;BME280;42994;51.606;9.988;2022-12-10T12:29:58;98401.69;;;-1.99;100.00
57114;BME280;42994;51.606;9.988;2022-12-10T12:32:31;98403.91;;;-1.94;100.00
57114;BME280;42994;51.606;9.988;2022-12-10T12:35:01;98399.81;;;-1.87;100.00
57114;BME280;42994;51.606;9.988;2022-12-10T12:37:33;98401.28;;;-1.94;100.00
57114;BME280;42994;51.606;9.988;2022-12-10T12:40:11;98408.50;;;-2.07;100.00
57114;BME280;42994;51.606;9.988;2022-12-10T12:42:43;98396.78;;;-2.03;100.00
57114;BME280;42994;51.606;9.988;2022-12-10T12:45:13;98400.50;;;-2.06;100.00
57114;BME280;42994;51.606;9.988;2022-12-10T12:47:46;98407.81;;;-2.09;100.00
57114;BME280;42994;51.606;9.988;2022-12-10T12:50:23;98412.34;;;-2.11;100.00
57114;BME280;42994;51.606;9.988;2022-12-10T12:52:52;98407.59;;;-2.18;100.00
57114;BME280;42994;51.606;9.988;2022-12-10T12:55:28;98408.50;;;-2.07;100.00
57114;BME280;42994;51.606;9.988;2022-12-10T12:58:09;98414.00;;;-2.10;100.00
57114;BME280;42994;51.606;9.988;2022-12-10T13:00:37;98413.94;;;-2.20;100.00
57114;BME280;42994;51.606;9.988;2022-12-10T13:03:20;98405.78;;;-2.06;100.00
57114;BME280;42994;51.606;9.988;2022-12-10T13:05:50;98405.44;;;-2.13;100.00
57114;BME280;42994;51.606;9.988;2022-12-10T13:08:30;98404.09;;;-2.07;100.00